createdAt,value
2023-06-13T00:01:49.652Z,3.00
2023-06-13T00:06:52.323Z,3.60
2023-06-13T00:09:19.219Z,3.25
2023-06-13T00:11:46.752Z,2.80
2023-06-13T00:14:14.151Z,2.92
2023-06-13T00:16:40.951Z,3.10
2023-06-13T00:19:10.614Z,2.92
2023-06-13T00:21:38.944Z,3.25
2023-06-13T00:24:06.228Z,2.80
2023-06-13T00:26:33.334Z,2.97
2023-06-13T00:29:00.497Z,3.33
2023-06-13T00:31:30.330Z,3.30
2023-06-13T00:33:58.798Z,3.17
2023-06-13T00:36:26.527Z,3.03
2023-06-13T00:38:55.007Z,3.08
2023-06-13T00:41:21.809Z,2.90
2023-06-13T00:43:48.695Z,2.75
2023-06-13T00:46:16.298Z,3.17
2023-06-13T00:48:44.917Z,2.83
2023-06-13T00:51:12.600Z,3.10
2023-06-13T00:53:40.421Z,3.45
2023-06-13T00:56:08.452Z,3.28
2023-06-13T00:58:37.313Z,3.00
2023-06-13T01:01:05.154Z,3.20
2023-06-13T01:03:34.410Z,3.10
2023-06-13T01:06:01.807Z,3.47
2023-06-13T01:08:29.255Z,3.63
2023-06-13T01:11:14.564Z,3.65
2023-06-13T01:13:48.598Z,2.90
2023-06-13T01:16:30.295Z,3.10
2023-06-13T01:18:57.751Z,2.85
2023-06-13T01:21:26.160Z,2.97
2023-06-13T01:24:01.588Z,3.55
2023-06-13T01:26:49.931Z,3.53
2023-06-13T01:29:17.128Z,4.25
2023-06-13T01:31:44.633Z,3.35
2023-06-13T01:34:12.434Z,3.15
2023-06-13T01:36:39.465Z,3.15
2023-06-13T01:39:06.313Z,3.30
2023-06-13T01:41:33.458Z,3.10
2023-06-13T01:44:01.200Z,3.05
2023-06-13T01:46:31.987Z,3.53
2023-06-13T01:48:58.948Z,3.53
2023-06-13T01:51:46.735Z,3.72
2023-06-13T01:54:13.924Z,3.20
2023-06-13T01:56:42.360Z,3.33
2023-06-13T01:59:09.537Z,3.63
2023-06-13T02:01:37.519Z,3.42
2023-06-13T02:04:06.601Z,2.90
2023-06-13T02:06:33.717Z,3.35
2023-06-13T02:09:03.154Z,4.97
2023-06-13T02:11:30.023Z,3.20
2023-06-13T02:13:56.807Z,3.45
2023-06-13T02:16:26.742Z,3.35
2023-06-13T02:18:54.373Z,2.95
2023-06-13T02:21:22.796Z,3.60
2023-06-13T02:23:52.117Z,3.90
2023-06-13T02:26:20.497Z,3.03
2023-06-13T02:28:49.111Z,3.40
2023-06-13T02:31:16.974Z,3.47
2023-06-13T02:33:46.505Z,3.72
2023-06-13T02:36:13.566Z,3.50
2023-06-13T02:38:40.359Z,3.40
2023-06-13T02:41:07.274Z,3.33
2023-06-13T02:43:34.515Z,3.78
2023-06-13T02:46:01.742Z,3.38
2023-06-13T02:48:28.860Z,3.08
2023-06-13T02:50:57.448Z,3.40
2023-06-13T02:53:26.498Z,3.80
2023-06-13T02:55:54.218Z,3.30
2023-06-13T02:58:22.487Z,3.30
2023-06-13T03:00:49.732Z,3.83
2023-06-13T03:03:19.532Z,3.13
2023-06-13T03:05:49.129Z,3.85
2023-06-13T03:08:21.608Z,3.55
2023-06-13T03:10:49.826Z,3.20
2023-06-13T03:13:19.500Z,3.47
2023-06-13T03:15:52.834Z,3.72
2023-06-13T03:18:20.145Z,3.95
2023-06-13T03:20:48.833Z,4.00
2023-06-13T03:23:16.567Z,3.90
2023-06-13T03:25:43.646Z,3.60
2023-06-13T03:28:10.623Z,3.20
2023-06-13T03:30:38.090Z,3.67
2023-06-13T03:33:05.054Z,3.55
2023-06-13T03:35:31.949Z,3.30
2023-06-13T03:37:58.892Z,3.70
2023-06-13T03:40:27.536Z,3.35
2023-06-13T03:42:54.557Z,3.20
2023-06-13T03:45:22.532Z,3.25
2023-06-13T03:47:49.572Z,3.20
2023-06-13T03:50:18.710Z,3.28
2023-06-13T03:52:46.761Z,3.10
2023-06-13T03:55:14.832Z,2.95
2023-06-13T03:57:41.817Z,3.38
2023-06-13T04:00:09.908Z,3.40
2023-06-13T04:02:37.684Z,3.00
2023-06-13T04:05:07.708Z,2.92
2023-06-13T04:07:35.330Z,3.30
2023-06-13T04:10:05.743Z,3.60
2023-06-13T04:12:32.731Z,3.10
2023-06-13T04:14:59.597Z,3.03
2023-06-13T04:17:26.581Z,2.83
2023-06-13T04:19:55.981Z,3.35
2023-06-13T04:22:23.018Z,3.00
2023-06-13T04:24:49.831Z,3.15
2023-06-13T04:27:21.060Z,3.38
2023-06-13T04:29:49.142Z,3.35
2023-06-13T04:32:19.284Z,3.35
2023-06-13T04:34:46.664Z,3.10
2023-06-13T04:37:14.679Z,3.15
2023-06-13T04:39:41.762Z,3.13
2023-06-13T04:42:15.529Z,3.17
2023-06-13T04:44:46.992Z,3.13
2023-06-13T04:47:15.522Z,2.83
2023-06-13T04:49:42.770Z,3.03
2023-06-13T04:52:09.665Z,3.30
2023-06-13T04:54:36.722Z,2.40
2023-06-13T04:57:03.654Z,2.42
2023-06-13T04:59:31.480Z,2.40
2023-06-13T05:01:58.290Z,2.25
2023-06-13T05:04:25.324Z,3.22
2023-06-13T05:06:52.209Z,2.40
2023-06-13T05:09:21.500Z,2.78
2023-06-13T05:11:48.471Z,2.72
2023-06-13T05:14:15.416Z,2.50
2023-06-13T05:16:42.416Z,2.35
2023-06-13T05:19:12.045Z,3.10
2023-06-13T05:21:39.219Z,2.90
2023-06-13T05:24:08.376Z,2.85
2023-06-13T05:26:35.319Z,2.83
2023-06-13T05:29:05.535Z,3.00
2023-06-13T05:31:34.594Z,2.80
2023-06-13T05:34:02.651Z,2.92
2023-06-13T05:36:31.683Z,3.03
2023-06-13T05:38:59.051Z,3.13
2023-06-13T05:41:27.306Z,2.97
2023-06-13T05:43:55.500Z,3.28
2023-06-13T05:46:22.547Z,2.88
2023-06-13T05:48:50.874Z,3.50
2023-06-13T05:51:17.743Z,3.47
2023-06-13T05:53:44.631Z,3.08
2023-06-13T05:56:11.917Z,3.20
2023-06-13T05:58:38.980Z,3.15
2023-06-13T06:01:09.969Z,2.83
2023-06-13T06:03:36.843Z,3.10
2023-06-13T06:06:04.037Z,3.10
2023-06-13T06:08:31.281Z,3.13
2023-06-13T06:10:58.601Z,3.00
2023-06-13T06:13:25.617Z,2.88
2023-06-13T06:15:54.429Z,2.63
2023-06-13T06:18:22.819Z,3.03
2023-06-13T06:20:49.719Z,2.10
2023-06-13T06:23:17.672Z,2.80
2023-06-13T06:25:44.670Z,2.35
2023-06-13T06:28:11.471Z,3.58
2023-06-13T06:30:38.894Z,2.75
2023-06-13T06:33:05.894Z,2.75
2023-06-13T06:35:32.852Z,2.17
2023-06-13T06:38:01.516Z,2.20
2023-06-13T06:40:28.611Z,3.10
2023-06-13T06:42:55.852Z,2.35
2023-06-13T06:45:23.041Z,2.85
2023-06-13T06:47:50.092Z,2.17
2023-06-13T06:50:17.634Z,2.53
2023-06-13T06:52:44.937Z,2.40
2023-06-13T06:55:12.010Z,2.40
2023-06-13T06:57:38.825Z,2.50
2023-06-13T07:00:07.296Z,2.13
2023-06-13T07:02:34.280Z,2.03
2023-06-13T07:05:01.991Z,2.35
2023-06-13T07:07:29.043Z,2.20
2023-06-13T07:09:56.876Z,2.45
2023-06-13T07:12:25.192Z,2.20
2023-06-13T07:14:52.078Z,2.83
2023-06-13T07:17:19.068Z,2.50
2023-06-13T07:19:47.408Z,2.33
2023-06-13T07:22:14.805Z,2.35
2023-06-13T07:24:43.199Z,2.25
2023-06-13T07:27:10.163Z,2.47
2023-06-13T07:29:37.094Z,2.67
2023-06-13T07:32:04.590Z,2.72
2023-06-13T07:34:49.635Z,3.10
2023-06-13T07:37:18.330Z,2.17
2023-06-13T07:39:45.118Z,2.70
2023-06-13T07:42:13.077Z,2.60
2023-06-13T07:44:42.584Z,2.30
2023-06-13T07:47:11.959Z,2.20
2023-06-13T07:49:38.804Z,2.20
2023-06-13T07:52:06.263Z,2.30
2023-06-13T07:54:33.582Z,2.20
2023-06-13T07:57:01.426Z,2.22
2023-06-13T07:59:28.920Z,2.20
2023-06-13T08:01:55.992Z,2.08
2023-06-13T08:04:23.306Z,1.80
2023-06-13T08:06:51.806Z,1.90
2023-06-13T08:09:19.057Z,1.73
2023-06-13T08:11:45.996Z,2.50
2023-06-13T08:14:15.706Z,2.42
2023-06-13T08:16:43.915Z,3.20
2023-06-13T08:19:11.644Z,2.40
2023-06-13T08:21:38.433Z,2.25
2023-06-13T08:24:06.857Z,2.83
2023-06-13T08:26:34.918Z,2.50
2023-06-13T08:29:05.131Z,1.75
2023-06-13T08:34:08.907Z,2.17
2023-06-13T08:36:41.384Z,2.60
2023-06-13T08:39:08.577Z,2.53
2023-06-13T08:41:36.474Z,2.55
2023-06-13T08:44:03.875Z,2.85
2023-06-13T08:46:31.022Z,2.42
2023-06-13T08:48:58.072Z,2.33
2023-06-13T08:51:25.339Z,2.45
2023-06-13T08:53:56.054Z,2.38
2023-06-13T08:56:23.217Z,2.40
2023-06-13T08:58:54.206Z,2.60
2023-06-13T09:01:21.057Z,2.80
2023-06-13T09:03:47.971Z,2.83
2023-06-13T09:06:21.252Z,2.28
2023-06-13T09:08:48.632Z,2.60
2023-06-13T09:11:18.106Z,2.58
2023-06-13T09:13:47.316Z,2.33
2023-06-13T09:16:14.379Z,2.90
2023-06-13T09:18:44.355Z,2.30
2023-06-13T09:21:14.377Z,2.80
2023-06-13T09:23:41.714Z,2.80
2023-06-13T09:26:10.464Z,2.22
2023-06-13T09:28:45.227Z,2.42
2023-06-13T09:31:12.440Z,2.60
2023-06-13T09:33:39.483Z,2.42
2023-06-13T09:36:07.690Z,2.83
2023-06-13T09:38:36.733Z,2.45
2023-06-13T09:41:05.206Z,2.50
2023-06-13T09:43:32.070Z,2.50
2023-06-13T09:45:58.919Z,2.50
2023-06-13T09:48:25.809Z,4.88
2023-06-13T09:50:52.686Z,2.72
2023-06-13T09:53:19.716Z,2.75
2023-06-13T09:55:47.180Z,3.10
2023-06-13T09:58:30.904Z,2.42
2023-06-13T10:01:03.037Z,2.60
2023-06-13T10:03:30.250Z,2.40
2023-06-13T10:06:02.227Z,2.67
2023-06-13T10:08:33.369Z,2.87
2023-06-13T10:11:01.618Z,2.47
2023-06-13T10:13:30.594Z,2.70
2023-06-13T10:15:59.508Z,2.92
2023-06-13T10:18:45.471Z,2.67
2023-06-13T10:21:14.662Z,2.70
2023-06-13T10:23:45.468Z,2.80
2023-06-13T10:26:16.570Z,2.60
2023-06-13T10:28:52.902Z,2.50
2023-06-13T10:31:41.444Z,2.70
2023-06-13T10:34:16.619Z,2.70
2023-06-13T10:37:11.279Z,2.97
2023-06-13T10:39:50.621Z,2.35
2023-06-13T10:42:33.064Z,2.67
2023-06-13T10:45:02.747Z,2.40
2023-06-13T10:47:31.005Z,2.70
2023-06-13T10:49:58.661Z,3.25
2023-06-13T10:52:25.687Z,2.60
2023-06-13T10:54:57.081Z,2.65
2023-06-13T10:57:24.051Z,2.45
2023-06-13T10:59:51.077Z,2.85
2023-06-13T11:02:19.487Z,2.65
2023-06-13T11:04:51.314Z,2.47
2023-06-13T11:07:24.649Z,3.20
2023-06-13T11:10:03.254Z,2.42
2023-06-13T11:12:30.769Z,2.47
2023-06-13T11:14:59.138Z,2.67
2023-06-13T11:17:26.279Z,2.70
2023-06-13T11:19:54.531Z,2.38
2023-06-13T11:22:22.926Z,3.08
2023-06-13T11:24:50.322Z,2.97
2023-06-13T11:27:18.255Z,2.72
2023-06-13T11:29:45.159Z,2.38
2023-06-13T11:32:12.594Z,2.95
2023-06-13T11:34:57.861Z,3.28
2023-06-13T11:37:37.244Z,3.50
2023-06-13T11:42:36.108Z,2.80
2023-06-13T11:45:03.407Z,2.80
2023-06-13T11:47:30.384Z,2.88
2023-06-13T11:50:00.596Z,2.92
2023-06-13T11:52:27.494Z,2.75
2023-06-13T11:54:55.622Z,2.65
2023-06-13T11:57:22.585Z,2.80
2023-06-13T11:59:58.578Z,3.40
2023-06-13T12:02:27.095Z,2.70
2023-06-13T12:04:54.349Z,2.95
2023-06-13T12:07:21.646Z,2.38
2023-06-13T12:09:48.884Z,2.63
2023-06-13T12:12:15.944Z,2.55
2023-06-13T12:14:42.827Z,2.70
2023-06-13T12:17:10.809Z,2.70
2023-06-13T12:19:39.221Z,2.58
2023-06-13T12:22:06.681Z,2.42
2023-06-13T12:24:33.798Z,2.88
2023-06-13T12:27:02.836Z,2.60
2023-06-13T12:29:32.574Z,2.65
2023-06-13T12:32:00.906Z,2.63
2023-06-13T12:34:32.427Z,2.67
2023-06-13T12:37:06.326Z,3.05
2023-06-13T12:39:33.324Z,2.55
2023-06-13T12:42:02.711Z,2.63
2023-06-13T12:44:32.267Z,2.70
2023-06-13T12:47:00.604Z,2.60
2023-06-13T12:49:27.477Z,2.85
2023-06-13T12:51:54.383Z,2.55
2023-06-13T12:54:26.810Z,2.65
2023-06-13T12:56:59.045Z,2.50
2023-06-13T12:59:32.537Z,2.40
2023-06-13T13:02:00.643Z,2.58
2023-06-13T13:04:37.480Z,2.88
2023-06-13T13:07:05.307Z,2.53
2023-06-13T13:09:33.697Z,2.88
2023-06-13T13:12:00.845Z,2.38
2023-06-13T13:14:28.054Z,2.50
2023-06-13T13:16:55.606Z,3.35
2023-06-13T13:19:22.699Z,2.78
2023-06-13T13:21:51.249Z,3.00
2023-06-13T13:24:18.430Z,2.58
2023-06-13T13:26:51.416Z,2.92
2023-06-13T13:29:18.309Z,2.70
2023-06-13T13:31:45.526Z,2.28
2023-06-13T13:36:43.564Z,2.50
2023-06-13T13:39:11.788Z,2.35
2023-06-13T13:41:38.739Z,2.30
2023-06-13T13:44:06.434Z,2.35
2023-06-13T13:46:33.400Z,2.50
2023-06-13T13:49:01.065Z,2.33
2023-06-13T13:51:30.211Z,2.65
2023-06-13T13:53:57.807Z,2.70
2023-06-13T13:56:25.129Z,2.60
2023-06-13T13:58:52.070Z,2.97
2023-06-13T14:01:21.484Z,2.50
2023-06-13T14:03:49.078Z,3.00
2023-06-13T14:06:16.392Z,2.70
2023-06-13T14:08:43.236Z,3.40
2023-06-13T14:11:10.081Z,2.78
2023-06-13T14:13:37.619Z,2.90
2023-06-13T14:16:05.533Z,2.90
2023-06-13T14:18:33.515Z,2.90
2023-06-13T14:21:01.836Z,2.47
2023-06-13T14:23:29.185Z,2.95
2023-06-13T14:25:56.103Z,3.03
2023-06-13T14:28:23.326Z,2.33
2023-06-13T14:30:50.168Z,2.90
2023-06-13T14:33:19.574Z,2.45
2023-06-13T14:35:46.782Z,2.70
2023-06-13T14:38:13.761Z,2.78
2023-06-13T14:40:41.039Z,2.65
2023-06-13T14:43:08.113Z,2.55
2023-06-13T14:45:35.087Z,3.28
2023-06-13T14:48:03.620Z,2.90
2023-06-13T14:50:30.713Z,2.65
2023-06-13T14:52:59.645Z,2.90
2023-06-13T14:55:28.519Z,3.35
2023-06-13T14:57:56.451Z,2.80
2023-06-13T15:00:23.784Z,3.10
2023-06-13T15:02:55.313Z,2.50
2023-06-13T15:05:23.406Z,2.83
2023-06-13T15:07:51.525Z,2.92
2023-06-13T15:10:19.708Z,3.55
2023-06-13T15:12:47.081Z,3.10
2023-06-13T15:15:13.940Z,3.42
2023-06-13T15:17:41.246Z,3.08
2023-06-13T15:20:11.200Z,2.90
2023-06-13T15:22:38.636Z,3.00
2023-06-13T15:25:06.216Z,2.63
2023-06-13T15:27:33.893Z,2.85
2023-06-13T15:30:01.954Z,2.50
2023-06-13T15:32:30.499Z,3.00
2023-06-13T15:34:57.449Z,3.38
2023-06-13T15:37:24.209Z,3.15
2023-06-13T15:39:51.667Z,3.13
2023-06-13T15:42:19.224Z,2.90
2023-06-13T15:44:49.781Z,2.78
2023-06-13T15:47:16.820Z,2.72
2023-06-13T15:49:44.529Z,3.28
2023-06-13T15:52:11.758Z,3.20
2023-06-13T15:54:38.574Z,2.72
2023-06-13T15:57:05.545Z,2.83
2023-06-13T15:59:32.419Z,2.83
2023-06-13T16:01:59.295Z,3.08
2023-06-13T16:04:26.475Z,3.20
2023-06-13T16:06:55.577Z,3.00
2023-06-13T16:09:23.552Z,2.88
2023-06-13T16:11:50.876Z,2.90
2023-06-13T16:14:17.908Z,2.30
2023-06-13T16:16:46.865Z,3.28
2023-06-13T16:19:15.108Z,2.92
2023-06-13T16:21:42.081Z,2.80
2023-06-13T16:24:11.175Z,3.03
2023-06-13T16:26:38.807Z,2.90
2023-06-13T16:29:06.251Z,2.88
2023-06-13T16:31:33.189Z,2.67
2023-06-13T16:34:01.365Z,2.80
2023-06-13T16:36:28.131Z,2.80
2023-06-13T16:38:57.060Z,2.47
2023-06-13T16:41:25.573Z,3.55
2023-06-13T16:43:52.796Z,2.58
2023-06-13T16:46:19.820Z,2.95
2023-06-13T16:48:46.825Z,2.70
2023-06-13T16:51:13.726Z,3.20
2023-06-13T16:53:40.700Z,2.90
2023-06-13T16:56:07.861Z,2.80
2023-06-13T16:58:34.759Z,3.30
2023-06-13T17:01:01.586Z,3.15
2023-06-13T17:03:29.040Z,2.55
2023-06-13T17:05:55.928Z,3.13
2023-06-13T17:08:24.361Z,2.47
2023-06-13T17:10:52.098Z,2.67
2023-06-13T17:13:18.880Z,2.78
2023-06-13T17:15:46.510Z,2.78
2023-06-13T17:18:14.047Z,2.60
2023-06-13T17:20:41.220Z,2.60
2023-06-13T17:23:08.115Z,3.15
2023-06-13T17:25:36.061Z,2.40
2023-06-13T17:28:02.869Z,2.90
2023-06-13T17:30:36.974Z,2.60
2023-06-13T17:33:05.932Z,3.30
2023-06-13T17:35:33.475Z,2.90
2023-06-13T17:38:02.182Z,2.50
2023-06-13T17:40:29.531Z,2.88
2023-06-13T17:42:56.781Z,2.33
2023-06-13T17:45:24.464Z,2.22
2023-06-13T17:47:52.659Z,2.50
2023-06-13T17:50:22.165Z,2.88
2023-06-13T17:52:49.878Z,2.70
2023-06-13T17:55:18.419Z,2.88
2023-06-13T17:57:48.339Z,2.70
2023-06-13T18:00:25.689Z,3.30
2023-06-13T18:02:53.492Z,2.97
2023-06-13T18:05:20.769Z,3.63
2023-06-13T18:07:47.761Z,2.67
2023-06-13T18:10:14.677Z,3.00
2023-06-13T18:12:41.738Z,2.78
2023-06-13T18:15:09.983Z,2.50
2023-06-13T18:17:36.880Z,2.97
2023-06-13T18:20:05.924Z,3.10
2023-06-13T18:22:35.935Z,2.65
2023-06-13T18:25:02.898Z,2.95
2023-06-13T18:27:29.797Z,3.08
2023-06-13T18:29:58.940Z,2.90
2023-06-13T18:32:29.074Z,3.25
2023-06-13T18:34:55.913Z,3.20
2023-06-13T18:37:23.069Z,2.90
2023-06-13T18:39:50.507Z,3.45
2023-06-13T18:42:18.245Z,3.42
2023-06-13T18:44:46.036Z,3.58
2023-06-13T18:47:13.692Z,3.30
2023-06-13T18:49:41.874Z,3.25
2023-06-13T18:52:09.278Z,3.10
2023-06-13T18:54:36.345Z,3.70
2023-06-13T18:57:04.602Z,3.35
2023-06-13T18:59:37.441Z,3.60
2023-06-13T19:02:04.471Z,3.10
2023-06-13T19:04:34.305Z,3.53
2023-06-13T19:07:01.514Z,3.33
2023-06-13T19:09:28.389Z,3.10
2023-06-13T19:11:55.157Z,3.33
2023-06-13T19:14:25.361Z,3.40
2023-06-13T19:16:53.807Z,3.60
2023-06-13T19:19:22.355Z,3.60
2023-06-13T19:21:53.352Z,3.30
2023-06-13T19:24:22.172Z,3.58
2023-06-13T19:26:52.981Z,3.58
2023-06-13T19:29:20.345Z,3.33
2023-06-13T19:31:48.912Z,4.07
2023-06-13T19:34:17.123Z,3.80
2023-06-13T19:36:44.031Z,4.35
2023-06-13T19:39:25.392Z,3.40
2023-06-13T19:42:26.787Z,3.40
2023-06-13T19:45:02.223Z,3.53
2023-06-13T19:47:50.850Z,3.88
2023-06-13T19:50:18.607Z,3.05
2023-06-13T19:52:45.564Z,3.53
2023-06-13T19:55:14.322Z,3.30
2023-06-13T19:57:45.152Z,3.78
2023-06-13T20:00:15.163Z,3.50
2023-06-13T20:02:42.131Z,3.97
2023-06-13T20:05:10.743Z,3.60
2023-06-13T20:07:46.731Z,3.47
2023-06-13T20:10:14.397Z,3.65
2023-06-13T20:12:43.261Z,3.80
2023-06-13T20:15:10.476Z,4.30
2023-06-13T20:17:38.954Z,3.55
2023-06-13T20:20:10.519Z,3.67
2023-06-13T20:22:43.049Z,3.50
2023-06-13T20:25:10.634Z,3.80
2023-06-13T20:27:38.107Z,3.50
2023-06-13T20:30:06.837Z,3.90
2023-06-13T20:32:39.425Z,4.03
2023-06-13T20:35:08.663Z,3.90
2023-06-13T20:37:36.124Z,3.97
2023-06-13T20:40:05.679Z,5.55
2023-06-13T20:42:33.228Z,4.40
2023-06-13T20:45:05.997Z,4.43
2023-06-13T20:47:35.329Z,4.20
2023-06-13T20:50:04.601Z,4.45
2023-06-13T20:52:32.200Z,3.65
2023-06-13T20:54:58.959Z,4.57
2023-06-13T20:57:28.263Z,4.72
2023-06-13T21:00:03.600Z,5.00
2023-06-13T21:02:30.587Z,4.20
2023-06-13T21:04:57.864Z,4.00
2023-06-13T21:07:26.655Z,4.65
2023-06-13T21:09:57.093Z,4.45
2023-06-13T21:12:24.072Z,4.25
2023-06-13T21:14:51.795Z,4.10
2023-06-13T21:17:19.180Z,4.22
2023-06-13T21:19:46.775Z,4.50
2023-06-13T21:22:14.945Z,4.60
2023-06-13T21:24:42.299Z,4.85
2023-06-13T21:27:12.506Z,4.30
2023-06-13T21:29:42.473Z,4.20
2023-06-13T21:32:09.562Z,4.57
2023-06-13T21:34:36.817Z,4.68
2023-06-13T21:37:04.468Z,4.25
2023-06-13T21:39:31.964Z,4.32
2023-06-13T21:41:58.784Z,6.90
2023-06-13T21:44:25.689Z,5.40
2023-06-13T21:46:52.590Z,4.82
2023-06-13T21:49:19.924Z,4.53
2023-06-13T21:51:47.046Z,4.15
2023-06-13T21:54:15.298Z,5.65
2023-06-13T21:56:43.471Z,4.88
2023-06-13T21:59:11.793Z,4.60
2023-06-13T22:01:38.770Z,4.78
2023-06-13T22:04:05.795Z,4.55
2023-06-13T22:06:35.249Z,4.40
2023-06-13T22:09:02.101Z,4.90
2023-06-13T22:11:31.486Z,4.60
2023-06-13T22:13:58.731Z,5.15
2023-06-13T22:16:26.525Z,4.05
2023-06-13T22:18:53.442Z,4.80
2023-06-13T22:21:21.000Z,4.95
2023-06-13T22:23:48.547Z,4.72
2023-06-13T22:26:15.432Z,4.53
2023-06-13T22:28:42.347Z,4.40
2023-06-13T22:31:09.187Z,4.50
2023-06-13T22:33:36.038Z,5.40
2023-06-13T22:36:03.624Z,4.82
2023-06-13T22:38:31.155Z,4.45
2023-06-13T22:40:58.875Z,4.32
2023-06-13T22:43:26.334Z,4.40
2023-06-13T22:45:53.180Z,4.53
2023-06-13T22:48:21.449Z,5.13
2023-06-13T22:50:49.192Z,4.20
2023-06-13T22:53:16.633Z,5.07
2023-06-13T22:55:44.875Z,4.88
2023-06-13T22:58:11.721Z,4.85
2023-06-13T23:00:39.502Z,5.22
2023-06-13T23:03:06.497Z,4.40
2023-06-13T23:05:33.312Z,4.50
2023-06-13T23:08:00.806Z,4.75
2023-06-13T23:10:28.149Z,5.00
2023-06-13T23:12:55.038Z,4.72
2023-06-13T23:15:22.962Z,4.80
2023-06-13T23:17:49.856Z,4.65
2023-06-13T23:20:17.168Z,4.75
2023-06-13T23:22:46.093Z,5.03
2023-06-13T23:25:15.816Z,5.47
2023-06-13T23:27:42.709Z,5.05
2023-06-13T23:30:10.111Z,5.00
2023-06-13T23:32:39.801Z,4.60
2023-06-13T23:35:08.312Z,5.30
2023-06-13T23:37:35.272Z,5.07
2023-06-13T23:40:02.391Z,5.05
2023-06-13T23:42:29.480Z,4.82
2023-06-13T23:44:58.254Z,4.68
2023-06-13T23:47:25.182Z,5.45
2023-06-13T23:49:52.042Z,5.03
2023-06-13T23:52:20.562Z,4.80
2023-06-13T23:54:47.625Z,5.30
2023-06-13T23:57:14.588Z,5.05
2023-06-13T23:59:41.398Z,5.25
